sensor_id;sensor_type;location;lat;lon;timestamp;noise_LAeq;noise_LA_min;noise_LA_max;noise_LA01;noise_LA95
61321;Laerm;17737;52.586;13.284;2023-03-21T00:00:57;52.18;51.03;54.66;;
61321;Laerm;17737;52.586;13.284;2023-03-21T00:03:25;52.34;51.11;55.81;;
61321;Laerm;17737;52.586;13.284;2023-03-21T00:05:54;52.43;50.87;66.97;;
61321;Laerm;17737;52.586;13.284;2023-03-21T00:08:25;52.22;51.11;57.35;;
61321;Laerm;17737;52.586;13.284;2023-03-21T00:10:57;52.18;51.17;54.28;;
61321;Laerm;17737;52.586;13.284;2023-03-21T00:13:28;52.23;50.88;54.13;;
61321;Laerm;17737;52.586;13.284;2023-03-21T00:16:04;52.35;51.05;59.82;;
61321;Laerm;17737;52.586;13.284;2023-03-21T00:18:47;52.55;50.94;59.41;;
61321;Laerm;17737;52.586;13.284;2023-03-21T00:21:20;52.53;50.95;59.06;;
61321;Laerm;17737;52.586;13.284;2023-03-21T00:24:15;52.18;50.97;53.92;;
61321;Laerm;17737;52.586;13.284;2023-03-21T00:26:43;52.22;51.08;67.65;;
61321;Laerm;17737;52.586;13.284;2023-03-21T00:29:12;52.45;50.97;57.56;;
61321;Laerm;17737;52.586;13.284;2023-03-21T00:31:39;52.38;51.12;57.50;;
61321;Laerm;17737;52.586;13.284;2023-03-21T00:34:07;52.34;50.90;55.47;;
61321;Laerm;17737;52.586;13.284;2023-03-21T00:36:36;52.20;50.82;55.77;;
61321;Laerm;17737;52.586;13.284;2023-03-21T00:39:04;52.18;50.98;54.68;;
61321;Laerm;17737;52.586;13.284;2023-03-21T00:41:33;52.17;51.03;54.47;;
61321;Laerm;17737;52.586;13.284;2023-03-21T00:44:10;52.18;50.96;53.86;;
61321;Laerm;17737;52.586;13.284;2023-03-21T00:46:39;52.18;50.99;56.06;;
61321;Laerm;17737;52.586;13.284;2023-03-21T00:49:22;52.18;50.83;54.66;;
61321;Laerm;17737;52.586;13.284;2023-03-21T00:51:50;52.31;50.95;55.28;;
61321;Laerm;17737;52.586;13.284;2023-03-21T00:54:21;52.22;51.11;54.30;;
61321;Laerm;17737;52.586;13.284;2023-03-21T00:56:50;52.18;50.98;54.04;;
61321;Laerm;17737;52.586;13.284;2023-03-21T00:59:18;52.22;51.14;64.61;;
61321;Laerm;17737;52.586;13.284;2023-03-21T01:01:46;52.20;50.75;54.62;;
61321;Laerm;17737;52.586;13.284;2023-03-21T01:04:14;52.18;50.51;54.37;;
61321;Laerm;17737;52.586;13.284;2023-03-21T01:06:43;52.18;51.03;54.72;;
61321;Laerm;17737;52.586;13.284;2023-03-21T01:09:15;52.22;50.82;54.55;;
61321;Laerm;17737;52.586;13.284;2023-03-21T01:11:44;52.19;50.87;55.44;;
61321;Laerm;17737;52.586;13.284;2023-03-21T01:14:16;52.21;51.09;67.42;;
61321;Laerm;17737;52.586;13.284;2023-03-21T01:16:50;52.19;51.01;54.56;;
61321;Laerm;17737;52.586;13.284;2023-03-21T01:19:22;52.19;51.09;54.01;;
61321;Laerm;17737;52.586;13.284;2023-03-21T01:22:10;52.52;51.15;59.03;;
61321;Laerm;17737;52.586;13.284;2023-03-21T01:24:38;52.19;50.84;54.32;;
61321;Laerm;17737;52.586;13.284;2023-03-21T01:27:21;52.74;51.04;60.67;;
61321;Laerm;17737;52.586;13.284;2023-03-21T01:29:50;52.50;51.04;58.61;;
61321;Laerm;17737;52.586;13.284;2023-03-21T01:32:18;53.62;50.94;67.31;;
61321;Laerm;17737;52.586;13.284;2023-03-21T01:34:46;52.21;51.06;54.45;;
61321;Laerm;17737;52.586;13.284;2023-03-21T01:37:14;52.64;51.08;57.26;;
61321;Laerm;17737;52.586;13.284;2023-03-21T01:39:44;52.47;50.97;57.59;;
61321;Laerm;17737;52.586;13.284;2023-03-21T01:42:13;52.35;50.74;55.79;;
61321;Laerm;17737;52.586;13.284;2023-03-21T01:44:55;52.44;50.93;66.28;;
61321;Laerm;17737;52.586;13.284;2023-03-21T01:47:23;52.19;51.13;54.23;;
61321;Laerm;17737;52.586;13.284;2023-03-21T01:49:55;52.19;51.08;54.44;;
61321;Laerm;17737;52.586;13.284;2023-03-21T01:52:29;52.33;50.97;56.16;;
61321;Laerm;17737;52.586;13.284;2023-03-21T01:55:07;52.38;51.07;64.62;;
61321;Laerm;17737;52.586;13.284;2023-03-21T01:57:42;52.19;50.94;53.57;;
61321;Laerm;17737;52.586;13.284;2023-03-21T02:00:32;52.89;51.16;60.19;;
61321;Laerm;17737;52.586;13.284;2023-03-21T02:03:06;52.20;51.11;54.64;;
61321;Laerm;17737;52.586;13.284;2023-03-21T02:05:51;52.20;51.10;53.76;;
61321;Laerm;17737;52.586;13.284;2023-03-21T02:08:22;52.21;50.97;55.15;;
61321;Laerm;17737;52.586;13.284;2023-03-21T02:11:06;52.48;51.03;61.98;;
61321;Laerm;17737;52.586;13.284;2023-03-21T02:13:35;52.20;51.12;54.55;;
61321;Laerm;17737;52.586;13.284;2023-03-21T02:16:14;52.20;51.02;54.07;;
61321;Laerm;17737;52.586;13.284;2023-03-21T02:18:54;52.30;50.92;54.75;;
61321;Laerm;17737;52.586;13.284;2023-03-21T02:22:05;52.21;50.93;54.81;;
61321;Laerm;17737;52.586;13.284;2023-03-21T02:25:34;52.75;51.09;59.10;;
61321;Laerm;17737;52.586;13.284;2023-03-21T02:28:14;52.20;51.14;54.08;;
61321;Laerm;17737;52.586;13.284;2023-03-21T02:31:15;52.37;50.97;56.31;;
61321;Laerm;17737;52.586;13.284;2023-03-21T02:34:24;52.21;50.77;54.15;;
61321;Laerm;17737;52.586;13.284;2023-03-21T02:37:09;52.27;50.64;55.06;;
61321;Laerm;17737;52.586;13.284;2023-03-21T02:39:55;52.20;51.02;55.40;;
61321;Laerm;17737;52.586;13.284;2023-03-21T02:42:35;52.21;51.13;54.82;;
61321;Laerm;17737;52.586;13.284;2023-03-21T02:45:11;52.53;50.92;58.16;;
61321;Laerm;17737;52.586;13.284;2023-03-21T02:47:45;52.31;51.03;55.31;;
61321;Laerm;17737;52.586;13.284;2023-03-21T02:50:20;52.21;50.98;54.91;;
61321;Laerm;17737;52.586;13.284;2023-03-21T02:52:53;53.02;51.30;60.53;;
61321;Laerm;17737;52.586;13.284;2023-03-21T02:55:25;52.23;50.84;55.31;;
61321;Laerm;17737;52.586;13.284;2023-03-21T02:57:55;52.21;51.12;54.57;;
61321;Laerm;17737;52.586;13.284;2023-03-21T03:00:37;53.07;51.19;61.45;;
61321;Laerm;17737;52.586;13.284;2023-03-21T03:03:05;53.44;51.14;63.63;;
61321;Laerm;17737;52.586;13.284;2023-03-21T03:05:44;52.44;51.00;55.92;;
61321;Laerm;17737;52.586;13.284;2023-03-21T03:08:31;52.72;51.02;60.73;;
61321;Laerm;17737;52.586;13.284;2023-03-21T03:11:25;52.39;51.07;59.34;;
61321;Laerm;17737;52.586;13.284;2023-03-21T03:14:14;52.38;51.03;64.95;;
61321;Laerm;17737;52.586;13.284;2023-03-21T03:17:17;53.39;51.10;66.10;;
61321;Laerm;17737;52.586;13.284;2023-03-21T03:20:04;52.22;51.05;55.06;;
61321;Laerm;17737;52.586;13.284;2023-03-21T03:22:51;53.22;51.06;63.45;;
61321;Laerm;17737;52.586;13.284;2023-03-21T03:25:28;52.54;51.11;66.83;;
61321;Laerm;17737;52.586;13.284;2023-03-21T03:28:10;52.89;50.88;58.61;;
61321;Laerm;17737;52.586;13.284;2023-03-21T03:30:41;52.25;51.11;53.88;;
61321;Laerm;17737;52.586;13.284;2023-03-21T03:33:31;52.55;51.11;55.80;;
61321;Laerm;17737;52.586;13.284;2023-03-21T03:36:02;52.81;51.11;57.42;;
61321;Laerm;17737;52.586;13.284;2023-03-21T03:38:35;52.33;51.18;54.82;;
61321;Laerm;17737;52.586;13.284;2023-03-21T03:41:13;52.30;51.05;54.49;;
61321;Laerm;17737;52.586;13.284;2023-03-21T03:43:49;53.23;50.99;63.06;;
61321;Laerm;17737;52.586;13.284;2023-03-21T03:46:29;52.58;51.07;55.87;;
61321;Laerm;17737;52.586;13.284;2023-03-21T03:49:04;52.69;51.17;57.25;;
61321;Laerm;17737;52.586;13.284;2023-03-21T03:51:42;53.15;51.13;61.63;;
61321;Laerm;17737;52.586;13.284;2023-03-21T03:54:17;52.73;51.18;59.17;;
61321;Laerm;17737;52.586;13.284;2023-03-21T03:56:47;53.70;51.15;60.69;;
61321;Laerm;17737;52.586;13.284;2023-03-21T03:59:15;52.57;51.19;54.78;;
61321;Laerm;17737;52.586;13.284;2023-03-21T04:01:45;54.30;51.26;65.53;;
61321;Laerm;17737;52.586;13.284;2023-03-21T04:04:12;54.50;51.07;61.92;;
61321;Laerm;17737;52.586;13.284;2023-03-21T04:06:42;52.80;51.29;59.81;;
61321;Laerm;17737;52.586;13.284;2023-03-21T04:09:11;53.64;51.18;63.01;;
61321;Laerm;17737;52.586;13.284;2023-03-21T04:11:52;52.71;50.99;65.99;;
61321;Laerm;17737;52.586;13.284;2023-03-21T04:14:19;52.71;51.23;65.10;;
61321;Laerm;17737;52.586;13.284;2023-03-21T04:16:47;53.30;51.17;59.67;;
61321;Laerm;17737;52.586;13.284;2023-03-21T04:19:16;54.08;51.31;63.80;;
61321;Laerm;17737;52.586;13.284;2023-03-21T04:21:45;52.99;51.19;58.09;;
61321;Laerm;17737;52.586;13.284;2023-03-21T04:24:13;53.13;51.12;57.75;;
61321;Laerm;17737;52.586;13.284;2023-03-21T04:26:41;52.62;51.28;56.74;;
61321;Laerm;17737;52.586;13.284;2023-03-21T04:29:10;52.67;51.26;56.41;;
61321;Laerm;17737;52.586;13.284;2023-03-21T04:31:38;53.28;51.25;66.55;;
61321;Laerm;17737;52.586;13.284;2023-03-21T04:34:07;53.67;51.35;67.03;;
61321;Laerm;17737;52.586;13.284;2023-03-21T04:36:38;53.44;51.26;58.58;;
61321;Laerm;17737;52.586;13.284;2023-03-21T04:39:09;53.93;51.26;66.89;;
61321;Laerm;17737;52.586;13.284;2023-03-21T04:41:39;53.93;51.36;66.73;;
61321;Laerm;17737;52.586;13.284;2023-03-21T04:44:10;54.14;51.41;67.53;;
61321;Laerm;17737;52.586;13.284;2023-03-21T04:46:39;53.47;51.24;57.46;;
61321;Laerm;17737;52.586;13.284;2023-03-21T04:49:07;53.55;51.30;67.98;;
61321;Laerm;17737;52.586;13.284;2023-03-21T04:51:35;53.25;51.07;58.50;;
61321;Laerm;17737;52.586;13.284;2023-03-21T04:54:04;54.26;51.49;65.52;;
61321;Laerm;17737;52.586;13.284;2023-03-21T04:56:32;53.46;51.25;59.49;;
61321;Laerm;17737;52.586;13.284;2023-03-21T04:59:08;54.43;51.32;66.27;;
61321;Laerm;17737;52.586;13.284;2023-03-21T05:01:38;54.47;51.14;64.35;;
61321;Laerm;17737;52.586;13.284;2023-03-21T05:04:11;53.91;51.27;61.02;;
61321;Laerm;17737;52.586;13.284;2023-03-21T05:06:40;54.09;51.41;60.84;;
61321;Laerm;17737;52.586;13.284;2023-03-21T05:09:11;55.58;51.40;68.76;;
61321;Laerm;17737;52.586;13.284;2023-03-21T05:11:40;53.60;51.20;67.36;;
61321;Laerm;17737;52.586;13.284;2023-03-21T05:14:10;53.85;51.35;67.64;;
61321;Laerm;17737;52.586;13.284;2023-03-21T05:16:44;56.13;51.31;72.78;;
61321;Laerm;17737;52.586;13.284;2023-03-21T05:19:15;54.34;51.37;59.05;;
61321;Laerm;17737;52.586;13.284;2023-03-21T05:21:43;54.59;51.45;59.47;;
61321;Laerm;17737;52.586;13.284;2023-03-21T05:24:14;54.09;51.23;61.22;;
61321;Laerm;17737;52.586;13.284;2023-03-21T05:26:43;53.94;51.17;59.98;;
61321;Laerm;17737;52.586;13.284;2023-03-21T05:29:17;53.95;51.23;60.71;;
61321;Laerm;17737;52.586;13.284;2023-03-21T05:31:46;53.97;51.32;66.83;;
61321;Laerm;17737;52.586;13.284;2023-03-21T05:34:15;55.02;51.51;67.08;;
61321;Laerm;17737;52.586;13.284;2023-03-21T05:36:42;53.58;51.20;59.57;;
61321;Laerm;17737;52.586;13.284;2023-03-21T05:39:10;53.93;51.18;59.82;;
61321;Laerm;17737;52.586;13.284;2023-03-21T05:41:38;54.11;51.18;59.27;;
61321;Laerm;17737;52.586;13.284;2023-03-21T05:44:06;53.64;51.26;59.04;;
61321;Laerm;17737;52.586;13.284;2023-03-21T05:46:34;54.58;51.48;62.71;;
61321;Laerm;17737;52.586;13.284;2023-03-21T05:49:04;54.57;51.40;61.24;;
61321;Laerm;17737;52.586;13.284;2023-03-21T05:51:32;53.80;51.16;65.27;;
61321;Laerm;17737;52.586;13.284;2023-03-21T05:54:00;54.75;51.26;59.98;;
61321;Laerm;17737;52.586;13.284;2023-03-21T05:56:28;55.14;51.69;61.74;;
61321;Laerm;17737;52.586;13.284;2023-03-21T05:58:56;55.19;51.49;60.58;;
61321;Laerm;17737;52.586;13.284;2023-03-21T06:01:24;54.65;51.47;59.57;;
61321;Laerm;17737;52.586;13.284;2023-03-21T06:03:52;53.90;51.15;60.27;;
61321;Laerm;17737;52.586;13.284;2023-03-21T06:06:21;56.29;51.86;65.03;;
61321;Laerm;17737;52.586;13.284;2023-03-21T06:08:49;56.19;51.78;66.75;;
61321;Laerm;17737;52.586;13.284;2023-03-21T06:11:25;56.45;52.00;65.79;;
61321;Laerm;17737;52.586;13.284;2023-03-21T06:13:53;55.81;51.59;66.92;;
61321;Laerm;17737;52.586;13.284;2023-03-21T06:16:22;54.78;51.33;59.91;;
61321;Laerm;17737;52.586;13.284;2023-03-21T06:18:50;54.54;51.28;59.90;;
61321;Laerm;17737;52.586;13.284;2023-03-21T06:21:17;55.37;51.43;60.34;;
61321;Laerm;17737;52.586;13.284;2023-03-21T06:23:47;55.09;51.49;60.46;;
61321;Laerm;17737;52.586;13.284;2023-03-21T06:26:17;54.90;51.39;59.65;;
61321;Laerm;17737;52.586;13.284;2023-03-21T06:28:48;54.07;51.18;58.49;;
61321;Laerm;17737;52.586;13.284;2023-03-21T06:31:16;54.60;51.69;59.55;;
61321;Laerm;17737;52.586;13.284;2023-03-21T06:33:55;54.40;51.45;62.77;;
61321;Laerm;17737;52.586;13.284;2023-03-21T06:36:23;55.29;51.43;62.42;;
61321;Laerm;17737;52.586;13.284;2023-03-21T06:38:52;54.71;51.33;64.41;;
61321;Laerm;17737;52.586;13.284;2023-03-21T06:41:20;53.60;51.50;64.47;;
61321;Laerm;17737;52.586;13.284;2023-03-21T06:43:48;55.15;51.53;59.83;;
61321;Laerm;17737;52.586;13.284;2023-03-21T06:46:16;54.39;51.44;60.17;;
61321;Laerm;17737;52.586;13.284;2023-03-21T06:48:44;54.04;51.42;60.71;;
61321;Laerm;17737;52.586;13.284;2023-03-21T06:51:13;56.74;51.44;66.63;;
61321;Laerm;17737;52.586;13.284;2023-03-21T06:53:42;63.16;54.96;85.88;;
61321;Laerm;17737;52.586;13.284;2023-03-21T06:56:13;55.64;51.48;64.36;;
61321;Laerm;17737;52.586;13.284;2023-03-21T06:58:42;54.29;51.33;59.51;;
61321;Laerm;17737;52.586;13.284;2023-03-21T07:01:10;54.52;51.12;60.81;;
61321;Laerm;17737;52.586;13.284;2023-03-21T07:03:40;53.83;51.33;58.81;;
61321;Laerm;17737;52.586;13.284;2023-03-21T07:06:10;55.19;51.83;60.03;;
61321;Laerm;17737;52.586;13.284;2023-03-21T07:08:40;54.86;51.28;60.93;;
61321;Laerm;17737;52.586;13.284;2023-03-21T07:11:08;54.60;51.37;65.48;;
61321;Laerm;17737;52.586;13.284;2023-03-21T07:13:38;55.42;51.63;61.91;;
61321;Laerm;17737;52.586;13.284;2023-03-21T07:16:07;54.60;51.40;67.68;;
61321;Laerm;17737;52.586;13.284;2023-03-21T07:18:36;54.28;51.44;60.90;;
61321;Laerm;17737;52.586;13.284;2023-03-21T07:21:04;54.75;51.41;59.14;;
61321;Laerm;17737;52.586;13.284;2023-03-21T07:23:32;54.27;51.15;60.83;;
61321;Laerm;17737;52.586;13.284;2023-03-21T07:26:00;54.83;51.54;61.99;;
61321;Laerm;17737;52.586;13.284;2023-03-21T07:28:29;53.32;51.30;57.77;;
61321;Laerm;17737;52.586;13.284;2023-03-21T07:31:02;54.65;51.16;64.25;;
61321;Laerm;17737;52.586;13.284;2023-03-21T07:33:32;55.00;51.36;60.27;;
61321;Laerm;17737;52.586;13.284;2023-03-21T07:36:01;55.09;51.47;66.59;;
61321;Laerm;17737;52.586;13.284;2023-03-21T07:38:29;54.90;51.64;66.48;;
61321;Laerm;17737;52.586;13.284;2023-03-21T07:40:58;53.53;51.12;58.02;;
61321;Laerm;17737;52.586;13.284;2023-03-21T07:43:27;54.73;51.39;65.54;;
61321;Laerm;17737;52.586;13.284;2023-03-21T07:45:59;54.05;51.57;57.94;;
61321;Laerm;17737;52.586;13.284;2023-03-21T07:48:28;55.26;51.33;69.77;;
61321;Laerm;17737;52.586;13.284;2023-03-21T07:50:56;54.59;51.38;67.44;;
61321;Laerm;17737;52.586;13.284;2023-03-21T07:53:24;54.34;51.30;62.48;;
61321;Laerm;17737;52.586;13.284;2023-03-21T07:55:54;54.46;51.24;66.00;;
61321;Laerm;17737;52.586;13.284;2023-03-21T07:58:23;54.42;51.21;66.59;;
61321;Laerm;17737;52.586;13.284;2023-03-21T08:01:02;54.92;51.34;63.34;;
61321;Laerm;17737;52.586;13.284;2023-03-21T08:03:30;53.99;51.23;62.78;;
61321;Laerm;17737;52.586;13.284;2023-03-21T08:05:59;53.11;51.21;66.89;;
61321;Laerm;17737;52.586;13.284;2023-03-21T08:08:27;54.57;51.37;60.47;;
61321;Laerm;17737;52.586;13.284;2023-03-21T08:10:56;53.41;50.92;59.47;;
61321;Laerm;17737;52.586;13.284;2023-03-21T08:13:24;53.99;51.08;59.05;;
61321;Laerm;17737;52.586;13.284;2023-03-21T08:15:53;54.77;51.44;66.64;;
61321;Laerm;17737;52.586;13.284;2023-03-21T08:18:23;53.87;50.84;59.30;;
61321;Laerm;17737;52.586;13.284;2023-03-21T08:20:51;53.66;51.16;66.44;;
61321;Laerm;17737;52.586;13.284;2023-03-21T08:23:20;54.15;51.41;68.05;;
61321;Laerm;17737;52.586;13.284;2023-03-21T08:25:50;54.00;51.23;67.12;;
61321;Laerm;17737;52.586;13.284;2023-03-21T08:28:20;53.63;51.11;58.67;;
61321;Laerm;17737;52.586;13.284;2023-03-21T08:30:49;53.96;51.24;66.75;;
61321;Laerm;17737;52.586;13.284;2023-03-21T08:33:17;54.72;51.18;67.99;;
61321;Laerm;17737;52.586;13.284;2023-03-21T08:35:47;54.74;51.23;61.97;;
61321;Laerm;17737;52.586;13.284;2023-03-21T08:38:15;54.75;51.56;60.56;;
61321;Laerm;17737;52.586;13.284;2023-03-21T08:40:43;54.09;51.24;58.63;;
61321;Laerm;17737;52.586;13.284;2023-03-21T08:43:11;53.65;51.16;63.48;;
61321;Laerm;17737;52.586;13.284;2023-03-21T08:45:42;54.63;51.47;65.20;;
61321;Laerm;17737;52.586;13.284;2023-03-21T08:48:10;53.66;51.32;59.87;;
61321;Laerm;17737;52.586;13.284;2023-03-21T08:50:39;53.54;51.38;60.82;;
61321;Laerm;17737;52.586;13.284;2023-03-21T08:53:08;53.47;51.00;58.81;;
61321;Laerm;17737;52.586;13.284;2023-03-21T08:55:36;54.13;51.36;65.80;;
61321;Laerm;17737;52.586;13.284;2023-03-21T08:58:05;55.10;51.72;64.29;;
61321;Laerm;17737;52.586;13.284;2023-03-21T09:00:33;53.92;51.19;62.81;;
61321;Laerm;17737;52.586;13.284;2023-03-21T09:03:01;53.23;51.44;62.48;;
61321;Laerm;17737;52.586;13.284;2023-03-21T09:05:30;53.70;51.45;65.52;;
61321;Laerm;17737;52.586;13.284;2023-03-21T09:07:59;53.10;51.27;61.68;;
61321;Laerm;17737;52.586;13.284;2023-03-21T09:10:30;54.12;51.33;64.32;;
61321;Laerm;17737;52.586;13.284;2023-03-21T09:12:58;54.46;50.76;66.52;;
61321;Laerm;17737;52.586;13.284;2023-03-21T09:15:27;53.08;51.21;59.63;;
61321;Laerm;17737;52.586;13.284;2023-03-21T09:17:57;53.47;51.26;65.49;;
61321;Laerm;17737;52.586;13.284;2023-03-21T09:20:39;53.50;51.04;66.27;;
61321;Laerm;17737;52.586;13.284;2023-03-21T09:23:09;54.70;51.20;66.31;;
61321;Laerm;17737;52.586;13.284;2023-03-21T09:25:39;54.87;51.39;66.69;;
61321;Laerm;17737;52.586;13.284;2023-03-21T09:28:08;54.47;51.05;61.83;;
61321;Laerm;17737;52.586;13.284;2023-03-21T09:30:36;53.04;51.22;62.27;;
61321;Laerm;17737;52.586;13.284;2023-03-21T09:33:05;53.30;51.08;60.32;;
61321;Laerm;17737;52.586;13.284;2023-03-21T09:35:39;53.39;51.20;59.99;;
61321;Laerm;17737;52.586;13.284;2023-03-21T09:38:08;53.92;51.20;65.38;;
61321;Laerm;17737;52.586;13.284;2023-03-21T09:41:00;53.44;51.24;65.30;;
61321;Laerm;17737;52.586;13.284;2023-03-21T09:43:54;53.61;51.28;57.96;;
61321;Laerm;17737;52.586;13.284;2023-03-21T09:46:40;53.98;51.31;60.56;;
61321;Laerm;17737;52.586;13.284;2023-03-21T09:49:20;53.95;51.10;61.32;;
61321;Laerm;17737;52.586;13.284;2023-03-21T09:51:58;53.67;51.17;59.87;;
61321;Laerm;17737;52.586;13.284;2023-03-21T09:54:37;53.69;51.20;61.05;;
61321;Laerm;17737;52.586;13.284;2023-03-21T09:57:30;54.13;50.99;70.28;;
61321;Laerm;17737;52.586;13.284;2023-03-21T10:00:11;54.22;51.12;64.35;;
61321;Laerm;17737;52.586;13.284;2023-03-21T10:03:03;53.07;51.23;57.59;;
61321;Laerm;17737;52.586;13.284;2023-03-21T10:05:35;53.12;51.13;58.69;;
61321;Laerm;17737;52.586;13.284;2023-03-21T10:08:21;52.84;51.11;58.78;;
61321;Laerm;17737;52.586;13.284;2023-03-21T10:11:04;54.35;51.36;59.50;;
61321;Laerm;17737;52.586;13.284;2023-03-21T10:13:47;55.89;51.32;64.15;;
61321;Laerm;17737;52.586;13.284;2023-03-21T10:16:29;55.04;51.33;65.65;;
61321;Laerm;17737;52.586;13.284;2023-03-21T10:19:12;53.66;51.25;58.58;;
61321;Laerm;17737;52.586;13.284;2023-03-21T10:21:49;53.84;51.25;59.22;;
61321;Laerm;17737;52.586;13.284;2023-03-21T10:24:32;54.38;51.30;59.81;;
61321;Laerm;17737;52.586;13.284;2023-03-21T10:27:03;53.17;51.03;57.40;;
61321;Laerm;17737;52.586;13.284;2023-03-21T10:29:41;53.63;51.17;58.16;;
61321;Laerm;17737;52.586;13.284;2023-03-21T10:32:12;53.96;51.10;61.52;;
61321;Laerm;17737;52.586;13.284;2023-03-21T10:34:45;53.63;51.19;59.12;;
61321;Laerm;17737;52.586;13.284;2023-03-21T10:37:15;54.50;51.30;63.23;;
61321;Laerm;17737;52.586;13.284;2023-03-21T10:39:45;54.58;51.08;64.73;;
61321;Laerm;17737;52.586;13.284;2023-03-21T10:42:20;53.70;51.27;58.75;;
61321;Laerm;17737;52.586;13.284;2023-03-21T10:44:53;55.47;51.72;65.87;;
61321;Laerm;17737;52.586;13.284;2023-03-21T10:47:25;53.82;51.36;59.50;;
61321;Laerm;17737;52.586;13.284;2023-03-21T10:49:54;54.11;51.28;59.54;;
61321;Laerm;17737;52.586;13.284;2023-03-21T10:52:34;53.53;51.03;64.88;;
61321;Laerm;17737;52.586;13.284;2023-03-21T10:55:14;54.36;51.53;60.49;;
61321;Laerm;17737;52.586;13.284;2023-03-21T10:57:44;53.67;51.35;63.71;;
61321;Laerm;17737;52.586;13.284;2023-03-21T11:00:20;53.77;51.40;60.84;;
61321;Laerm;17737;52.586;13.284;2023-03-21T11:02:51;54.08;51.35;58.66;;
61321;Laerm;17737;52.586;13.284;2023-03-21T11:05:24;53.84;51.20;59.74;;
61321;Laerm;17737;52.586;13.284;2023-03-21T11:08:00;53.09;51.21;58.07;;
61321;Laerm;17737;52.586;13.284;2023-03-21T11:10:32;54.43;51.25;60.16;;
61321;Laerm;17737;52.586;13.284;2023-03-21T11:13:06;54.05;51.09;58.75;;
61321;Laerm;17737;52.586;13.284;2023-03-21T11:15:53;54.01;51.17;60.09;;
61321;Laerm;17737;52.586;13.284;2023-03-21T11:18:23;53.95;51.39;59.04;;
61321;Laerm;17737;52.586;13.284;2023-03-21T11:20:54;53.45;51.30;61.64;;
61321;Laerm;17737;52.586;13.284;2023-03-21T11:23:28;53.03;51.15;57.86;;
61321;Laerm;17737;52.586;13.284;2023-03-21T11:26:00;53.51;51.16;57.24;;
61321;Laerm;17737;52.586;13.284;2023-03-21T11:28:36;53.75;51.12;57.77;;
61321;Laerm;17737;52.586;13.284;2023-03-21T11:31:07;53.27;50.95;57.67;;
61321;Laerm;17737;52.586;13.284;2023-03-21T11:33:38;54.24;51.40;63.92;;
61321;Laerm;17737;52.586;13.284;2023-03-21T11:36:31;53.29;51.19;56.83;;
61321;Laerm;17737;52.586;13.284;2023-03-21T11:39:23;53.51;51.46;56.38;;
61321;Laerm;17737;52.586;13.284;2023-03-21T11:41:55;53.79;51.22;59.42;;
61321;Laerm;17737;52.586;13.284;2023-03-21T11:44:29;53.88;51.36;72.79;;
61321;Laerm;17737;52.586;13.284;2023-03-21T11:47:00;53.58;51.21;60.30;;
61321;Laerm;17737;52.586;13.284;2023-03-21T11:49:30;53.82;51.20;59.52;;
61321;Laerm;17737;52.586;13.284;2023-03-21T11:52:13;53.51;51.16;65.12;;
61321;Laerm;17737;52.586;13.284;2023-03-21T11:55:27;53.42;51.10;62.81;;
61321;Laerm;17737;52.586;13.284;2023-03-21T11:58:16;53.91;51.11;62.55;;
61321;Laerm;17737;52.586;13.284;2023-03-21T12:00:55;53.19;51.10;64.55;;
61321;Laerm;17737;52.586;13.284;2023-03-21T12:03:51;53.83;51.13;66.00;;
61321;Laerm;17737;52.586;13.284;2023-03-21T12:06:31;54.21;51.25;68.79;;
61321;Laerm;17737;52.586;13.284;2023-03-21T12:09:13;53.28;51.11;64.23;;
61321;Laerm;17737;52.586;13.284;2023-03-21T12:12:10;53.31;51.05;60.10;;
61321;Laerm;17737;52.586;13.284;2023-03-21T12:14:57;53.12;50.93;57.95;;
61321;Laerm;17737;52.586;13.284;2023-03-21T12:17:41;53.53;51.06;60.34;;
61321;Laerm;17737;52.586;13.284;2023-03-21T12:20:39;54.88;51.07;66.45;;
61321;Laerm;17737;52.586;13.284;2023-03-21T12:23:41;53.80;50.85;60.36;;
61321;Laerm;17737;52.586;13.284;2023-03-21T12:26:21;54.47;51.09;67.19;;
61321;Laerm;17737;52.586;13.284;2023-03-21T12:29:35;53.48;51.00;65.46;;
61321;Laerm;17737;52.586;13.284;2023-03-21T12:32:23;53.63;50.96;59.62;;
61321;Laerm;17737;52.586;13.284;2023-03-21T12:35:24;53.83;50.76;58.65;;
61321;Laerm;17737;52.586;13.284;2023-03-21T12:38:14;54.89;50.94;65.35;;
61321;Laerm;17737;52.586;13.284;2023-03-21T12:41:11;52.87;50.86;58.36;;
61321;Laerm;17737;52.586;13.284;2023-03-21T12:43:46;52.80;50.94;64.05;;
61321;Laerm;17737;52.586;13.284;2023-03-21T12:46:21;53.58;50.96;62.06;;
61321;Laerm;17737;52.586;13.284;2023-03-21T12:48:56;53.51;50.87;58.00;;
61321;Laerm;17737;52.586;13.284;2023-03-21T12:51:30;55.63;51.18;65.46;;
61321;Laerm;17737;52.586;13.284;2023-03-21T12:54:15;54.05;50.99;60.91;;
61321;Laerm;17737;52.586;13.284;2023-03-21T12:56:52;54.08;50.78;64.76;;
61321;Laerm;17737;52.586;13.284;2023-03-21T12:59:30;53.44;50.68;59.28;;
61321;Laerm;17737;52.586;13.284;2023-03-21T13:02:17;53.82;50.77;64.23;;
61321;Laerm;17737;52.586;13.284;2023-03-21T13:04:56;53.92;50.83;63.15;;
61321;Laerm;17737;52.586;13.284;2023-03-21T13:07:32;53.77;50.76;64.77;;
61321;Laerm;17737;52.586;13.284;2023-03-21T13:10:13;53.55;50.56;58.70;;
61321;Laerm;17737;52.586;13.284;2023-03-21T13:12:56;52.75;50.84;57.06;;
61321;Laerm;17737;52.586;13.284;2023-03-21T13:15:48;54.34;50.88;64.85;;
61321;Laerm;17737;52.586;13.284;2023-03-21T13:19:02;53.30;50.79;61.11;;
61321;Laerm;17737;52.586;13.284;2023-03-21T13:21:56;53.02;50.78;58.46;;
61321;Laerm;17737;52.586;13.284;2023-03-21T13:24:38;52.67;50.82;58.18;;
61321;Laerm;17737;52.586;13.284;2023-03-21T13:27:26;53.47;51.19;59.33;;
61321;Laerm;17737;52.586;13.284;2023-03-21T13:30:03;53.86;51.19;59.98;;
61321;Laerm;17737;52.586;13.284;2023-03-21T13:32:35;54.63;51.28;63.98;;
61321;Laerm;17737;52.586;13.284;2023-03-21T13:35:15;53.31;51.05;58.18;;
61321;Laerm;17737;52.586;13.284;2023-03-21T13:37:50;53.17;51.04;58.80;;
61321;Laerm;17737;52.586;13.284;2023-03-21T13:40:22;53.46;51.15;59.99;;
61321;Laerm;17737;52.586;13.284;2023-03-21T13:42:55;53.77;51.19;58.23;;
61321;Laerm;17737;52.586;13.284;2023-03-21T13:45:32;53.39;51.20;57.98;;
61321;Laerm;17737;52.586;13.284;2023-03-21T13:48:05;53.08;51.11;58.82;;
61321;Laerm;17737;52.586;13.284;2023-03-21T13:50:59;54.85;50.93;62.35;;
61321;Laerm;17737;52.586;13.284;2023-03-21T13:53:32;53.51;51.01;59.38;;
61321;Laerm;17737;52.586;13.284;2023-03-21T13:56:24;53.35;51.24;63.10;;
61321;Laerm;17737;52.586;13.284;2023-03-21T13:58:58;53.39;51.02;65.20;;
61321;Laerm;17737;52.586;13.284;2023-03-21T14:01:33;54.36;51.20;60.26;;
61321;Laerm;17737;52.586;13.284;2023-03-21T14:04:10;54.33;51.16;59.22;;
61321;Laerm;17737;52.586;13.284;2023-03-21T14:06:54;54.43;51.12;65.45;;
61321;Laerm;17737;52.586;13.284;2023-03-21T14:09:32;55.62;51.08;64.48;;
61321;Laerm;17737;52.586;13.284;2023-03-21T14:12:08;53.55;51.00;58.71;;
61321;Laerm;17737;52.586;13.284;2023-03-21T14:14:42;53.54;50.99;58.53;;